Time;durP1;ratioP1;P1;durP2;ratioP2;P2;SDS_P1;SDS_P2;PMS_P1;PMS_P2;Temp;Humidity;BMP_temperature;BMP_pressure;BME280_temperature;BME280_humidity;BME280_pressure;Samples;Min_cycle;Max_cycle;Signal;HPM_P1;HPM_P2
2021/11/14 00:01:22;;;;;;;9.00;5.40;;;;;;;5.00;62.69;100839.59;4934275;29;20043;-78
2021/11/14 00:03:49;;;;;;;9.07;5.35;;;;;;;5.08;61.42;100859.03;4935079;29;20510;-79
2021/11/14 00:06:20;;;;;;;12.85;5.68;;;;;;;5.16;61.73;100844.28;4934025;29;20082;-80
2021/11/14 00:08:48;;;;;;;10.57;5.00;;;;;;;5.14;61.35;100854.56;4935390;29;20528;-79
2021/11/14 00:11:16;;;;;;;15.63;5.40;;;;;;;5.18;61.47;100861.97;4934557;29;20039;-82
2021/11/14 00:13:44;;;;;;;10.73;5.38;;;;;;;5.18;60.96;100847.59;4932735;29;20098;-79
2021/11/14 00:16:13;;;;;;;12.77;5.13;;;;;;;5.35;60.65;100851.19;4938195;29;20103;-78
2021/11/14 00:18:44;;;;;;;11.95;5.57;;;;;;;5.32;60.77;100848.13;4937286;29;20054;-79
2021/11/14 00:21:13;;;;;;;12.10;5.38;;;;;;;5.20;60.59;100848.19;4933462;29;20612;-79
2021/11/14 00:23:39;;;;;;;12.93;5.70;;;;;;;4.98;60.92;100853.41;4933948;29;20083;-79
2021/11/14 00:26:06;;;;;;;13.18;6.88;;;;;;;4.85;62.14;100872.63;4935594;29;20039;-79
2021/11/14 00:28:32;;;;;;;13.50;5.63;;;;;;;4.58;62.20;100856.84;4935305;29;20054;-79
2021/11/14 00:31:14;;;;;;;12.60;6.07;;;;;;;4.42;62.72;100852.94;4933403;29;20074;-83
2021/11/14 00:33:43;;;;;;;17.65;6.03;;;;;;;4.37;63.29;100863.69;4953845;29;20051;-80
2021/11/14 00:36:10;;;;;;;11.55;5.68;;;;;;;4.19;63.13;100851.03;4958022;29;20044;-79
2021/11/14 00:38:37;;;;;;;18.70;5.80;;;;;;;4.18;63.48;100856.69;4957799;29;20027;-80
2021/11/14 00:41:04;;;;;;;12.43;5.97;;;;;;;4.24;62.80;100863.91;4958375;28;20038;-78
2021/11/14 00:43:32;;;;;;;16.17;4.75;;;;;;;4.24;62.14;100862.00;4946649;29;20047;-79
2021/11/14 00:45:58;;;;;;;20.50;6.18;;;;;;;4.15;62.94;100865.28;4932927;29;20074;-79
2021/11/14 00:48:24;;;;;;;14.95;6.93;;;;;;;4.10;63.22;100879.50;4917040;29;20051;-80
2021/11/14 00:50:51;;;;;;;16.60;6.10;;;;;;;4.17;63.19;100868.56;4917016;29;20055;-83
2021/11/14 00:53:18;;;;;;;16.30;5.70;;;;;;;4.33;62.66;100869.78;4932081;29;20040;-83
2021/11/14 00:55:45;;;;;;;13.23;5.70;;;;;;;4.27;62.33;100868.00;4931720;29;20609;-79
2021/11/14 00:58:11;;;;;;;13.27;5.60;;;;;;;4.12;62.46;100871.97;4931304;29;20058;-78
2021/11/14 01:00:38;;;;;;;13.98;5.93;;;;;;;4.12;63.11;100873.88;4931397;29;20055;-79
2021/11/14 01:03:08;;;;;;;12.77;5.80;;;;;;;4.08;63.22;100876.22;4915790;29;20094;-79
2021/11/14 01:05:36;;;;;;;15.70;5.32;;;;;;;4.01;63.57;100878.19;4931450;29;20127;-79
2021/11/14 01:08:04;;;;;;;12.88;5.20;;;;;;;4.05;63.85;100876.66;4931578;29;20044;-79
2021/11/14 01:10:34;;;;;;;18.10;5.90;;;;;;;4.07;63.60;100877.25;4919106;29;20048;-78
2021/11/14 01:13:00;;;;;;;15.38;5.40;;;;;;;4.03;64.18;100878.78;4935758;29;20496;-79
2021/11/14 01:15:28;;;;;;;15.95;6.63;;;;;;;4.13;64.53;100875.50;4936392;29;20083;-82
2021/11/14 01:17:57;;;;;;;19.60;7.18;;;;;;;4.04;64.45;100858.78;4935461;29;20047;-78
2021/11/14 01:20:26;;;;;;;12.93;6.68;;;;;;;4.17;64.40;100876.69;4934434;29;20044;-79
2021/11/14 01:22:55;;;;;;;14.82;6.32;;;;;;;3.91;64.41;100867.09;4930052;29;20048;-78
2021/11/14 01:25:21;;;;;;;11.93;5.78;;;;;;;4.02;64.52;100884.44;4918330;29;20052;-79
2021/11/14 01:27:47;;;;;;;11.13;5.60;;;;;;;3.94;64.77;100870.19;4919858;29;20402;-78
2021/11/14 01:30:20;;;;;;;13.77;5.97;;;;;;;3.99;64.47;100880.28;4936439;29;20556;-82
2021/11/14 01:32:46;;;;;;;17.38;6.80;;;;;;;3.84;65.04;100871.75;4916991;29;20032;-80
2021/11/14 01:35:13;;;;;;;18.20;6.70;;;;;;;3.79;65.49;100871.66;4933243;29;20425;-82
2021/11/14 01:37:42;;;;;;;13.40;6.03;;;;;;;3.84;65.19;100861.78;4937108;29;20043;-80
2021/11/14 01:40:12;;;;;;;13.63;6.00;;;;;;;4.00;64.90;100890.88;4936565;29;20048;-79
2021/11/14 01:42:39;;;;;;;19.35;6.28;;;;;;;3.92;64.26;100863.34;4936606;29;20047;-79
2021/11/14 01:45:06;;;;;;;11.63;5.78;;;;;;;3.98;64.66;100884.88;4936745;29;20186;-79
2021/11/14 01:47:34;;;;;;;15.43;5.88;;;;;;;3.92;64.49;100879.56;4936687;29;20130;-79
2021/11/14 01:50:01;;;;;;;12.48;4.88;;;;;;;3.93;63.53;100882.03;4936453;29;20679;-79
2021/11/14 01:52:30;;;;;;;11.75;4.95;;;;;;;3.85;63.77;100882.38;4935147;29;20259;-80
2021/11/14 01:54:57;;;;;;;10.77;4.60;;;;;;;3.73;63.28;100873.38;4936669;29;20044;-79
2021/11/14 01:57:27;;;;;;;8.02;3.95;;;;;;;3.79;63.02;100887.88;4937516;29;20039;-80
2021/11/14 01:59:54;;;;;;;7.25;3.92;;;;;;;3.87;62.56;100884.84;4935707;29;20146;-83
2021/11/14 02:02:21;;;;;;;7.85;4.07;;;;;;;3.90;62.74;100879.78;4937261;29;20098;-83
2021/11/14 02:04:47;;;;;;;8.63;4.65;;;;;;;3.83;62.82;100879.06;4937551;29;20134;-81
2021/11/14 02:07:18;;;;;;;7.45;3.97;;;;;;;3.92;62.06;100874.16;4936897;29;20501;-79
2021/11/14 02:09:45;;;;;;;11.23;4.47;;;;;;;3.98;62.75;100875.94;4935971;29;20050;-78
2021/11/14 02:12:13;;;;;;;16.25;5.63;;;;;;;4.26;62.50;100886.13;4936867;29;20584;-78
2021/11/14 02:14:40;;;;;;;13.35;4.60;;;;;;;4.29;61.21;100891.06;4935971;29;20063;-78
2021/11/14 02:17:07;;;;;;;10.80;4.55;;;;;;;4.35;61.27;100890.16;4936513;29;20050;-78
2021/11/14 02:19:33;;;;;;;17.40;4.50;;;;;;;4.50;61.00;100896.97;4935723;29;20509;-79
2021/11/14 02:22:00;;;;;;;15.30;4.10;;;;;;;4.37;60.31;100879.06;4936518;29;20189;-78
2021/11/14 02:24:26;;;;;;;9.57;4.03;;;;;;;4.38;60.69;100892.38;4935943;29;20048;-79
2021/11/14 02:26:53;;;;;;;12.27;4.45;;;;;;;4.28;61.26;100900.25;4936350;29;20408;-79
2021/11/14 02:29:19;;;;;;;12.32;4.82;;;;;;;4.33;60.85;100891.44;4935733;29;20047;-79
2021/11/14 02:31:46;;;;;;;15.73;4.78;;;;;;;4.38;60.78;100892.38;4935683;29;20043;-79
2021/11/14 02:34:12;;;;;;;8.27;4.07;;;;;;;4.44;60.64;100901.47;4935725;29;20119;-79
2021/11/14 02:36:39;;;;;;;12.77;4.90;;;;;;;4.49;60.76;100896.16;4936246;29;20051;-79
2021/11/14 02:39:06;;;;;;;10.35;4.07;;;;;;;4.65;60.33;100902.78;4936099;29;20047;-81
2021/11/14 02:41:33;;;;;;;8.98;3.97;;;;;;;4.64;60.14;100893.84;4935776;29;20477;-79
2021/11/14 02:44:00;;;;;;;9.02;4.40;;;;;;;4.65;60.64;100895.47;4935581;29;20493;-79
2021/11/14 02:46:27;;;;;;;8.55;4.45;;;;;;;4.74;60.64;100906.78;4936527;29;20071;-79
2021/11/14 02:48:53;;;;;;;18.00;4.45;;;;;;;4.83;60.38;100909.97;4936625;29;20505;-79
2021/11/14 02:51:25;;;;;;;13.18;3.88;;;;;;;4.87;59.80;100911.97;4937088;29;20047;-79
2021/11/14 02:53:54;;;;;;;10.00;4.22;;;;;;;4.74;59.18;100895.13;4936084;29;20050;-79
2021/11/14 02:56:20;;;;;;;12.07;4.28;;;;;;;4.72;58.72;100889.94;4935096;29;20043;-79
2021/11/14 02:58:48;;;;;;;12.38;4.07;;;;;;;4.85;58.83;100907.84;4935697;29;20083;-78
2021/11/14 03:01:20;;;;;;;10.45;4.28;;;;;;;4.81;58.94;100891.25;4935386;29;20043;-79
2021/11/14 03:03:48;;;;;;;14.38;5.00;;;;;;;4.75;59.15;100892.19;4935832;29;20048;-79
2021/11/14 03:06:15;;;;;;;15.07;4.80;;;;;;;4.65;58.95;100890.06;4934968;29;20032;-79
2021/11/14 03:08:42;;;;;;;22.45;4.50;;;;;;;4.43;59.91;100897.91;4936209;29;20040;-79
2021/11/14 03:11:09;;;;;;;18.05;4.80;;;;;;;4.47;60.41;100891.00;4918403;29;20142;-78
2021/11/14 03:13:54;;;;;;;15.73;4.57;;;;;;;4.37;60.56;100876.38;4935509;29;20115;-76
2021/11/14 03:16:24;;;;;;;13.57;4.72;;;;;;;4.40;60.97;100893.00;4935589;29;20043;-80
2021/11/14 03:18:53;;;;;;;17.92;4.90;;;;;;;4.35;61.20;100887.44;4935381;29;20043;-78
2021/11/14 03:21:19;;;;;;;14.35;4.65;;;;;;;4.37;61.58;100893.47;4935253;29;20051;-78
2021/11/14 03:23:45;;;;;;;18.80;4.43;;;;;;;4.31;61.99;100885.44;4935187;29;20569;-80
2021/11/14 03:26:11;;;;;;;13.73;4.45;;;;;;;4.34;61.86;100891.22;4934036;29;20095;-79
2021/11/14 03:28:38;;;;;;;11.77;4.20;;;;;;;4.31;61.93;100888.16;4934683;29;20525;-79
2021/11/14 03:31:04;;;;;;;12.68;3.80;;;;;;;4.15;61.92;100881.53;4934978;29;20051;-79
2021/11/14 03:33:32;;;;;;;9.48;4.05;;;;;;;4.26;62.49;100890.72;4935987;29;20044;-78
2021/11/14 03:36:10;;;;;;;9.63;3.92;;;;;;;4.22;62.08;100893.88;4936334;29;20042;-82
2021/11/14 03:38:40;;;;;;;12.65;3.85;;;;;;;4.18;62.24;100894.59;4936288;29;20048;-81
2021/11/14 03:41:10;;;;;;;14.70;4.05;;;;;;;3.98;61.89;100892.19;4935356;29;20036;-83
2021/11/14 03:43:38;;;;;;;15.90;4.10;;;;;;;4.03;62.08;100892.31;4935275;29;20399;-82
2021/11/14 03:46:05;;;;;;;12.95;4.45;;;;;;;4.09;61.41;100891.38;4935346;29;20067;-80
2021/11/14 03:48:33;;;;;;;14.00;3.60;;;;;;;4.17;61.00;100888.34;4934718;29;20062;-78
2021/11/14 03:51:01;;;;;;;14.60;4.22;;;;;;;4.29;61.43;100884.84;4934810;29;20043;-81
2021/11/14 03:53:28;;;;;;;22.60;4.65;;;;;;;4.36;61.22;100872.84;4934960;29;20075;-79
2021/11/14 03:55:55;;;;;;;12.98;4.85;;;;;;;4.41;60.91;100885.69;4934855;29;20082;-78
2021/11/14 03:58:21;;;;;;;9.17;4.20;;;;;;;4.47;60.89;100890.19;4933121;29;20043;-78
2021/11/14 04:00:51;;;;;;;15.88;4.65;;;;;;;4.61;60.66;100885.34;4934629;29;20313;-79
2021/11/14 04:03:18;;;;;;;17.40;4.50;;;;;;;4.47;61.76;100874.75;4935204;29;20036;-79
2021/11/14 04:05:44;;;;;;;9.82;4.05;;;;;;;4.53;61.95;100891.91;4935093;29;20087;-83
2021/11/14 04:08:17;;;;;;;8.90;4.50;;;;;;;4.54;62.38;100892.78;4938110;29;20103;-79
2021/11/14 04:10:45;;;;;;;8.60;4.45;;;;;;;4.53;62.52;100891.91;4940575;29;20070;-79
2021/11/14 04:13:13;;;;;;;10.82;5.30;;;;;;;4.36;62.83;100878.25;4939845;29;20051;-79
2021/11/14 04:15:40;;;;;;;10.18;5.28;;;;;;;4.53;62.51;100893.81;4934663;29;20039;-79
2021/11/14 04:18:07;;;;;;;13.18;5.05;;;;;;;4.61;62.90;100894.31;4934936;29;20059;-79
2021/11/14 04:20:37;;;;;;;9.80;4.50;;;;;;;4.78;62.73;100894.41;4934320;29;20051;-79
2021/11/14 04:23:05;;;;;;;11.00;5.25;;;;;;;4.81;61.75;100887.72;4935573;29;20134;-79
2021/11/14 04:25:31;;;;;;;11.45;4.63;;;;;;;5.06;61.15;100892.84;4935501;29;20050;-79
2021/11/14 04:27:58;;;;;;;9.77;4.47;;;;;;;4.83;61.49;100880.16;4935252;29;20521;-79
2021/11/14 04:30:26;;;;;;;12.18;4.43;;;;;;;4.95;60.29;100881.78;4933102;29;20122;-78
2021/11/14 04:32:56;;;;;;;10.02;4.47;;;;;;;5.06;59.91;100884.72;4933410;29;20052;-79
2021/11/14 04:35:23;;;;;;;11.65;5.03;;;;;;;5.12;60.01;100886.50;4934432;29;20039;-79
2021/11/14 04:37:51;;;;;;;8.48;4.80;;;;;;;5.17;60.04;100886.63;4934371;29;20044;-78
2021/11/14 04:40:20;;;;;;;10.38;5.32;;;;;;;5.17;59.88;100889.31;4932473;29;20128;-78
2021/11/14 04:42:47;;;;;;;16.75;5.28;;;;;;;5.19;60.30;100889.91;4932699;29;20476;-78
2021/11/14 04:45:14;;;;;;;14.90;6.57;;;;;;;5.17;60.50;100892.03;4937612;29;20411;-79
2021/11/14 04:47:41;;;;;;;24.23;12.77;;;;;;;5.10;60.89;100888.59;4938053;29;20572;-78
2021/11/14 04:50:09;;;;;;;14.85;7.25;;;;;;;5.12;60.43;100887.31;4937409;29;20047;-76
2021/11/14 04:52:35;;;;;;;11.27;5.78;;;;;;;5.08;60.40;100888.03;4937964;29;20436;-76
2021/11/14 04:55:02;;;;;;;16.27;6.60;;;;;;;5.09;60.71;100886.97;4938594;29;20103;-76
2021/11/14 04:57:30;;;;;;;17.50;6.20;;;;;;;5.05;60.28;100877.66;4938994;29;20056;-76
2021/11/14 04:59:56;;;;;;;14.23;5.63;;;;;;;5.15;61.45;100894.16;4937983;29;20075;-76
2021/11/14 05:02:23;;;;;;;14.73;6.30;;;;;;;5.19;60.28;100895.31;4937675;29;20054;-76
2021/11/14 05:04:49;;;;;;;9.85;5.82;;;;;;;5.17;61.00;100883.91;4937696;29;20048;-76
2021/11/14 05:07:15;;;;;;;14.25;5.82;;;;;;;5.32;61.30;100896.94;4937425;29;20067;-81
2021/11/14 05:09:41;;;;;;;12.55;6.22;;;;;;;5.32;60.64;100892.34;4937264;29;20040;-76
2021/11/14 05:12:09;;;;;;;11.82;6.28;;;;;;;5.27;60.52;100896.84;4937529;29;20051;-77
2021/11/14 05:14:35;;;;;;;17.92;5.82;;;;;;;5.31;60.52;100904.25;4938153;29;20126;-79
2021/11/14 05:17:03;;;;;;;14.85;6.53;;;;;;;5.40;60.36;100905.53;4937349;29;20055;-77
2021/11/14 05:19:28;;;;;;;19.58;6.32;;;;;;;5.45;60.49;100915.66;4937056;29;20044;-82
2021/11/14 05:21:54;;;;;;;18.70;6.75;;;;;;;5.51;59.95;100909.28;4935839;29;20044;-77
2021/11/14 05:24:20;;;;;;;11.45;5.75;;;;;;;5.57;60.31;100915.66;4936155;29;20074;-81
2021/11/14 05:26:47;;;;;;;13.60;6.20;;;;;;;5.62;59.93;100904.88;4936696;29;20110;-83
2021/11/14 05:29:13;;;;;;;13.15;6.35;;;;;;;5.63;59.54;100910.09;4937602;29;20047;-81
2021/11/14 05:31:39;;;;;;;12.00;5.75;;;;;;;5.45;59.73;100887.72;4938689;29;20343;-92
2021/11/14 05:34:05;;;;;;;11.43;5.85;;;;;;;5.49;58.84;100905.16;4906474;29;20080;-83
2021/11/14 05:36:33;;;;;;;23.55;5.93;;;;;;;5.37;59.34;100889.75;4936537;29;20040;-88
2021/11/14 05:39:01;;;;;;;19.05;7.13;;;;;;;5.50;59.60;100915.78;4937522;29;20098;-85
2021/11/14 05:41:30;;;;;;;17.45;7.80;;;;;;;5.46;60.35;100911.06;4936313;29;20580;-86
2021/11/14 05:43:56;;;;;;;17.30;7.25;;;;;;;5.34;60.63;100881.28;4927934;29;20044;-89
2021/11/14 05:46:22;;;;;;;25.48;6.97;;;;;;;5.28;60.74;100887.66;4934917;29;20069;-88
2021/11/14 05:48:48;;;;;;;23.05;7.57;;;;;;;5.34;60.73;100898.38;4932997;29;20047;-90
2021/11/14 05:51:14;;;;;;;14.80;7.78;;;;;;;5.43;60.77;100901.53;4926041;29;20171;-88
2021/11/14 05:53:40;;;;;;;19.27;7.78;;;;;;;5.48;60.64;100903.53;4927861;29;20581;-88
2021/11/14 05:56:06;;;;;;;25.40;7.05;;;;;;;5.45;60.43;100901.28;4925193;29;20039;-84
2021/11/14 06:01:41;;;;;;;27.02;7.45;;;;;;;5.37;60.73;100903.31;4926559;29;20569;-85
2021/11/14 06:06:47;;;;;;;22.77;9.63;;;;;;;5.30;61.15;100896.38;4902429;29;20514;-85
2021/11/14 06:09:14;;;;;;;23.52;10.30;;;;;;;5.45;60.88;100906.72;4926495;29;20051;-84
2021/11/14 06:11:40;;;;;;;23.48;10.32;;;;;;;5.38;60.86;100890.56;4890516;29;20048;-84
2021/11/14 06:14:07;;;;;;;26.95;10.13;;;;;;;5.36;61.53;100904.38;4916342;29;20111;-85
2021/11/14 06:16:34;;;;;;;27.73;11.05;;;;;;;5.15;60.30;100867.03;4917586;29;20048;-84
2021/11/14 06:19:00;;;;;;;34.63;10.05;;;;;;;5.31;60.69;100908.88;4917953;29;20414;-84
2021/11/14 06:21:26;;;;;;;22.38;8.93;;;;;;;5.23;60.49;100912.78;4933784;29;20417;-85
2021/11/14 06:23:53;;;;;;;23.48;9.05;;;;;;;5.31;60.54;100915.09;4926896;29;20039;-83
2021/11/14 06:26:22;;;;;;;24.25;10.70;;;;;;;5.23;59.73;100911.94;4907462;29;20510;-86
2021/11/14 06:28:49;;;;;;;16.58;8.38;;;;;;;5.11;60.04;100914.69;4923488;29;20142;-84
2021/11/14 06:31:16;;;;;;;22.92;8.43;;;;;;;5.24;60.55;100914.41;4963345;28;20043;-75
2021/11/14 06:33:41;;;;;;;19.02;8.50;;;;;;;5.22;60.66;100919.25;4924118;29;20063;-75
2021/11/14 06:36:09;;;;;;;23.35;9.65;;;;;;;5.11;60.93;100914.69;4915589;29;20071;-81
2021/11/14 06:38:35;;;;;;;22.33;9.27;;;;;;;5.16;60.98;100917.47;4916340;29;20135;-76
2021/11/14 06:41:02;;;;;;;20.67;8.07;;;;;;;5.24;60.85;100927.97;4915790;29;20054;-81
2021/11/14 06:43:28;;;;;;;20.20;8.55;;;;;;;5.22;60.97;100915.72;4923841;29;20043;-75
2021/11/14 06:45:55;;;;;;;20.75;8.65;;;;;;;5.13;61.29;100920.66;4933829;29;20596;-76
2021/11/14 06:48:22;;;;;;;24.60;9.05;;;;;;;5.18;61.45;100920.78;4934149;29;20047;-74
2021/11/14 06:50:49;;;;;;;19.67;9.45;;;;;;;5.18;61.33;100918.91;4921636;29;20643;-74
2021/11/14 06:53:15;;;;;;;34.38;10.80;;;;;;;5.16;61.29;100918.28;4942415;29;20043;-75
2021/11/14 06:55:41;;;;;;;22.20;9.55;;;;;;;5.32;61.76;100919.47;4940080;29;20131;-74
2021/11/14 06:58:07;;;;;;;19.27;10.10;;;;;;;5.31;61.60;100917.81;4925708;29;20062;-74
2021/11/14 07:00:33;;;;;;;36.85;11.50;;;;;;;5.36;61.41;100915.22;4925557;29;20028;-74
2021/11/14 07:02:59;;;;;;;35.40;12.98;;;;;;;5.40;62.05;100921.00;4935746;29;20064;-74
2021/11/14 07:05:25;;;;;;;36.03;12.13;;;;;;;5.25;62.47;100918.78;4925178;29;20437;-73
2021/11/14 07:07:51;;;;;;;29.77;11.02;;;;;;;5.30;62.65;100921.59;4921993;29;20102;-83
2021/11/14 07:10:20;;;;;;;29.85;10.68;;;;;;;5.24;62.94;100927.16;4919633;29;20136;-73
2021/11/14 07:12:46;;;;;;;28.25;10.45;;;;;;;5.23;63.15;100925.47;4920614;29;20051;-74
2021/11/14 07:15:14;;;;;;;27.20;10.68;;;;;;;5.16;62.98;100926.44;4919645;29;20404;-74
2021/11/14 07:17:40;;;;;;;;;;;;;;;5.22;63.10;100927.38;4915968;29;20040;-79
2021/11/14 07:20:09;;;;;;;30.38;11.02;;;;;;;5.24;63.24;100927.16;4915203;29;20321;-73
2021/11/14 07:22:35;;;;;;;27.45;11.23;;;;;;;5.11;63.32;100929.03;4915661;29;20048;-73
2021/11/14 07:25:02;;;;;;;34.00;10.47;;;;;;;5.02;63.75;100921.50;4921220;29;20059;-73
2021/11/14 07:27:28;;;;;;;;;;;;;;;5.11;63.94;100931.75;4922465;29;20612;-74
2021/11/14 07:29:56;;;;;;;31.58;10.65;;;;;;;5.13;63.56;100942.34;4915253;29;19930;-75
2021/11/14 07:32:22;;;;;;;31.65;11.75;;;;;;;5.14;63.80;100930.47;4919677;29;20036;-77
2021/11/14 07:34:48;;;;;;;30.13;11.80;;;;;;;5.17;64.23;100925.38;4932597;29;20050;-73
2021/11/14 07:37:14;;;;;;;29.75;11.88;;;;;;;5.13;64.25;100924.22;4933842;29;20040;-74
2021/11/14 07:39:40;;;;;;;29.60;11.32;;;;;;;5.16;63.96;100929.16;4932897;29;20503;-74
2021/11/14 07:42:06;;;;;;;35.72;11.73;;;;;;;5.24;63.79;100919.84;4923877;29;20051;-75
2021/11/14 07:44:33;;;;;;;31.83;12.18;;;;;;;5.40;63.68;100924.53;4932860;29;20067;-75
2021/11/14 07:46:59;;;;;;;39.13;12.48;;;;;;;5.34;63.44;100916.53;4916831;29;20130;-76
2021/11/14 07:49:25;;;;;;;29.77;11.90;;;;;;;5.35;63.33;100921.69;4928122;29;20178;-76
2021/11/14 07:51:51;;;;;;;33.58;13.80;;;;;;;5.37;63.96;100926.91;4932955;29;20126;-75
2021/11/14 07:54:18;;;;;;;35.08;12.90;;;;;;;5.25;64.29;100929.63;4932709;29;20434;-75
2021/11/14 07:56:44;;;;;;;36.45;13.27;;;;;;;5.11;64.51;100922.81;4932764;29;20031;-75
2021/11/14 07:59:10;;;;;;;38.58;13.60;;;;;;;5.14;64.64;100931.28;4915642;29;20163;-75
2021/11/14 08:01:36;;;;;;;35.65;12.85;;;;;;;5.21;64.54;100933.88;4914657;29;20483;-75
2021/11/14 08:04:02;;;;;;;44.70;15.48;;;;;;;5.09;64.21;100914.88;4915860;29;20384;-80
2021/11/14 08:06:28;;;;;;;31.58;11.30;;;;;;;5.23;64.12;100929.06;4930838;29;20050;-78
2021/11/14 08:08:55;;;;;;;49.17;18.23;;;;;;;5.30;63.59;100927.03;4934891;29;20099;-75
2021/11/14 08:11:22;;;;;;;41.17;17.77;;;;;;;5.28;61.15;100934.56;4932363;29;20513;-76
2021/11/14 08:13:48;;;;;;;42.17;12.10;;;;;;;5.28;63.96;100923.72;4932633;29;20048;-79
2021/11/14 08:16:14;;;;;;;37.95;11.20;;;;;;;5.54;61.89;100932.41;4931186;29;20422;-74
2021/11/14 08:18:40;;;;;;;30.10;9.80;;;;;;;5.53;62.51;100917.16;4923322;29;20771;-74
2021/11/14 08:21:06;;;;;;;24.08;8.38;;;;;;;5.48;59.76;100919.78;4918911;29;20387;-73
2021/11/14 08:23:33;;;;;;;24.35;8.80;;;;;;;5.37;60.37;100921.47;4922368;29;20073;-75
2021/11/14 08:25:58;;;;;;;34.08;11.13;;;;;;;5.23;60.90;100895.66;4920901;29;20387;-80
2021/11/14 08:28:24;;;;;;;36.67;11.65;;;;;;;5.39;61.23;100905.78;4919832;29;20051;-80
2021/11/14 08:30:51;;;;;;;60.63;23.58;;;;;;;5.46;61.60;100906.44;4920389;29;20074;-80
2021/11/14 08:33:17;;;;;;;36.67;12.57;;;;;;;5.36;61.28;100906.25;4918161;29;20043;-76
2021/11/14 08:35:43;;;;;;;31.70;10.07;;;;;;;5.36;61.20;100900.81;4920207;29;20478;-84
2021/11/14 08:38:11;;;;;;;31.42;11.18;;;;;;;5.33;61.21;100887.75;4918117;29;20044;-76
2021/11/14 08:40:38;;;;;;;46.63;13.05;;;;;;;5.48;61.44;100898.09;4918062;29;20413;-77
2021/11/14 08:43:07;;;;;;;107.60;35.05;;;;;;;5.53;61.38;100890.03;4917934;29;20044;-78
2021/11/14 08:45:34;;;;;;;84.72;26.98;;;;;;;5.59;61.23;100892.63;4917877;29;20044;-78
2021/11/14 08:48:01;;;;;;;54.45;16.58;;;;;;;5.39;60.25;100865.09;4916941;29;20071;-79
2021/11/14 08:50:28;;;;;;;43.30;12.93;;;;;;;5.42;60.62;100873.56;4916826;29;20056;-81
2021/11/14 08:52:58;;;;;;;36.33;13.77;;;;;;;5.53;60.49;100879.19;4917860;29;20118;-75
2021/11/14 08:55:26;;;;;;;46.13;11.95;;;;;;;5.59;59.15;100880.94;4916577;29;20033;-82
2021/11/14 08:57:54;;;;;;;36.50;12.52;;;;;;;5.54;58.99;100870.81;4917894;29;20130;-79
2021/11/14 09:00:24;;;;;;;71.70;22.52;;;;;;;5.71;60.07;100883.63;4917666;29;20131;-82
2021/11/14 09:02:52;;;;;;;85.38;27.13;;;;;;;5.59;59.10;100883.66;4932142;29;20462;-81
2021/11/14 09:05:20;;;;;;;147.32;47.45;;;;;;;5.68;59.51;100881.41;4934673;29;20465;-80
2021/11/14 09:07:46;;;;;;;31.00;11.75;;;;;;;5.64;59.05;100870.22;4926974;29;20052;-79
2021/11/14 09:10:12;;;;;;;55.88;19.33;;;;;;;5.63;59.20;100863.97;4931630;29;20075;-80
2021/11/14 09:12:38;;;;;;;58.83;26.90;;;;;;;5.69;59.55;100870.28;4917695;29;20115;-79
2021/11/14 09:15:06;;;;;;;49.38;15.50;;;;;;;5.54;59.93;100861.88;4918181;29;20036;-79
2021/11/14 09:17:32;;;;;;;32.47;13.10;;;;;;;5.59;59.98;100870.91;4919410;29;20921;-80
2021/11/14 09:19:58;;;;;;;37.05;13.38;;;;;;;5.49;60.03;100875.31;4920807;29;20146;-83
2021/11/14 09:22:25;;;;;;;26.40;8.95;;;;;;;5.29;59.94;100868.41;4924245;29;20043;-81
2021/11/14 09:24:51;;;;;;;33.50;11.98;;;;;;;5.34;60.78;100865.00;4917974;29;20036;-79
2021/11/14 09:27:17;;;;;;;28.98;11.98;;;;;;;5.29;61.19;100871.13;4930374;29;20067;-81
2021/11/14 09:29:42;;;;;;;33.92;11.75;;;;;;;5.21;61.45;100866.09;4934336;29;20482;-83
2021/11/14 09:32:09;;;;;;;47.63;15.73;;;;;;;5.21;61.10;100871.50;4931680;29;21375;-83
2021/11/14 09:34:35;;;;;;;50.05;15.95;;;;;;;5.11;61.65;100860.47;4916695;29;20047;-82
2021/11/14 09:37:02;;;;;;;59.17;19.10;;;;;;;5.13;61.20;100863.72;4916492;29;20123;-80
2021/11/14 09:39:28;;;;;;;22.90;7.80;;;;;;;5.11;60.88;100868.59;4915431;29;20050;-81
2021/11/14 09:41:54;;;;;;;26.90;7.60;;;;;;;5.15;60.43;100865.16;4916175;29;20135;-80
2021/11/14 09:44:21;;;;;;;15.48;6.93;;;;;;;5.08;60.34;100850.91;4916321;29;20552;-81
2021/11/14 09:46:54;;;;;;;15.07;7.30;;;;;;;5.17;60.66;100859.50;4932883;29;20134;-82
2021/11/14 09:49:25;;;;;;;34.45;8.43;;;;;;;5.03;61.35;100848.06;4932985;29;20782;-83
2021/11/14 09:51:54;;;;;;;35.10;8.68;;;;;;;5.05;61.42;100842.44;4916181;29;20521;-79
2021/11/14 09:54:23;;;;;;;23.85;8.73;;;;;;;5.10;61.90;100853.38;4915029;29;20597;-76
2021/11/14 09:56:50;;;;;;;31.50;9.13;;;;;;;5.13;61.98;100852.88;4916045;29;20032;-77
2021/11/14 09:59:17;;;;;;;25.55;9.80;;;;;;;5.16;61.25;100850.53;4915976;29;20058;-77
2021/11/14 10:01:44;;;;;;;23.45;7.15;;;;;;;5.17;60.69;100852.19;4915422;29;20391;-76
2021/11/14 10:04:12;;;;;;;17.65;7.57;;;;;;;5.18;61.03;100858.44;4915788;29;20396;-77
2021/11/14 10:06:38;;;;;;;19.67;7.72;;;;;;;5.28;60.84;100847.78;4916604;29;20052;-76
2021/11/14 10:09:06;;;;;;;19.85;7.03;;;;;;;5.17;61.13;100835.09;4934494;29;20135;-74
2021/11/14 10:11:38;;;;;;;22.55;9.10;;;;;;;5.21;61.46;100838.97;4925600;29;20071;-75
2021/11/14 10:14:06;;;;;;;20.95;8.57;;;;;;;5.30;61.12;100828.59;4916557;29;20067;-75
2021/11/14 10:16:35;;;;;;;24.23;8.43;;;;;;;5.19;60.90;100831.06;4914766;29;20191;-74
2021/11/14 10:19:12;;;;;;;20.40;9.60;;;;;;;5.28;61.56;100825.28;4915482;29;20051;-75
2021/11/14 10:21:45;;;;;;;23.05;9.43;;;;;;;5.27;61.57;100818.22;4932091;29;20497;-73
2021/11/14 10:24:12;;;;;;;30.95;9.15;;;;;;;5.27;61.70;100824.47;4934600;29;20046;-74
2021/11/14 10:26:38;;;;;;;31.02;9.85;;;;;;;5.15;62.10;100810.94;4925275;29;20051;-76
2021/11/14 10:29:08;;;;;;;21.85;8.40;;;;;;;5.15;62.16;100819.06;4916369;29;20052;-73
2021/11/14 10:31:35;;;;;;;21.60;8.93;;;;;;;5.12;62.57;100813.31;4916313;29;20040;-79
2021/11/14 10:34:03;;;;;;;29.40;8.45;;;;;;;5.19;62.55;100808.56;4917044;29;20040;-76
2021/11/14 10:36:31;;;;;;;29.35;10.75;;;;;;;5.20;62.12;100815.66;4923979;29;20138;-79
2021/11/14 10:39:09;;;;;;;18.90;9.85;;;;;;;5.28;62.81;100815.25;4933095;29;20048;-77
2021/11/14 10:41:44;;;;;;;38.22;13.07;;;;;;;5.27;62.20;100797.34;4923045;29;20043;-78
2021/11/14 10:44:18;;;;;;;26.85;12.57;;;;;;;5.16;62.74;100809.84;4930641;29;20043;-76
2021/11/14 10:46:45;;;;;;;118.25;48.83;;;;;;;5.25;62.50;100815.75;4918418;29;20135;-74
2021/11/14 10:49:11;;;;;;;116.00;32.80;;;;;;;5.14;62.60;100797.63;4916001;29;20160;-75
2021/11/14 10:51:39;;;;;;;89.32;22.85;;;;;;;5.06;62.56;100808.84;4914378;29;20328;-76
2021/11/14 10:54:07;;;;;;;50.42;14.68;;;;;;;5.00;62.52;100807.06;4916382;29;20036;-76
2021/11/14 10:56:33;;;;;;;31.13;9.20;;;;;;;5.08;63.60;100812.16;4920502;29;20560;-76
2021/11/14 10:59:06;;;;;;;39.83;12.73;;;;;;;4.98;65.12;100811.94;4916265;29;20040;-76
2021/11/14 11:01:33;;;;;;;56.65;15.45;;;;;;;5.03;65.12;100810.13;4920598;29;20036;-77
2021/11/14 11:03:59;;;;;;;35.95;12.55;;;;;;;4.99;65.16;100797.31;4932746;29;20071;-75
2021/11/14 11:06:28;;;;;;;48.05;15.43;;;;;;;4.92;65.30;100797.44;4933055;29;20841;-75
2021/11/14 11:09:02;;;;;;;53.92;15.23;;;;;;;4.86;65.23;100806.53;4932831;29;20531;-75
2021/11/14 11:11:29;;;;;;;29.65;11.50;;;;;;;4.76;65.73;100800.88;4922675;29;20043;-75
2021/11/14 11:13:56;;;;;;;34.67;12.15;;;;;;;4.61;65.84;100788.66;4914349;29;20059;-75
2021/11/14 11:16:30;;;;;;;30.00;9.77;;;;;;;4.63;64.76;100805.50;4910975;29;20032;-76
2021/11/14 11:19:09;;;;;;;38.55;10.93;;;;;;;4.66;65.83;100807.72;4914150;29;20172;-75
2021/11/14 11:21:39;;;;;;;42.17;12.50;;;;;;;4.55;65.46;100786.09;4912492;29;20051;-76
2021/11/14 11:24:11;;;;;;;36.08;10.57;;;;;;;4.65;65.21;100800.66;4913977;29;20036;-76
2021/11/14 11:26:40;;;;;;;32.45;11.15;;;;;;;4.53;65.43;100783.59;4917590;29;20055;-76
2021/11/14 11:29:17;;;;;;;19.23;8.68;;;;;;;4.63;65.52;100796.53;4930529;29;20081;-78
2021/11/14 11:31:48;;;;;;;26.05;9.82;;;;;;;4.41;65.93;100783.63;4926158;29;20068;-82